Time;durP1;ratioP1;P1;durP2;ratioP2;P2;SDS_P1;SDS_P2;PMS_P1;PMS_P2;Temp;Humidity;BMP_temperature;BMP_pressure;BME280_temperature;BME280_humidity;BME280_pressure;Samples;Min_cycle;Max_cycle;Signal;HPM_P1;HPM_P2
2021/08/21 00:00:33;;;;;;;11.70;6.60;;;17.90;95.60;;;;;;5011471;28;20540;-76
2021/08/21 00:02:59;;;;;;;11.68;6.00;;;17.90;95.60;;;;;;5012112;28;20033;-75
2021/08/21 00:05:24;;;;;;;11.20;6.30;;;17.90;95.60;;;;;;5011839;28;20018;-75
2021/08/21 00:07:50;;;;;;;11.65;6.88;;;17.90;95.60;;;;;;5012477;28;20022;-77
2021/08/21 00:10:16;;;;;;;8.88;5.70;;;17.90;95.60;;;;;;5012332;28;20034;-77
2021/08/21 00:12:42;;;;;;;10.88;6.45;;;17.80;95.60;;;;;;5012374;28;20068;-77
2021/08/21 00:15:12;;;;;;;11.05;6.78;;;17.80;95.70;;;;;;5012015;28;20030;-77
2021/08/21 00:17:38;;;;;;;9.93;5.70;;;17.80;95.70;;;;;;5011717;28;20332;-75
2021/08/21 00:20:06;;;;;;;9.88;6.20;;;17.80;95.70;;;;;;5011888;28;20157;-76
2021/08/21 00:22:31;;;;;;;10.98;6.03;;;17.80;95.70;;;;;;5010321;28;20026;-76
2021/08/21 00:24:57;;;;;;;10.45;5.95;;;17.70;95.70;;;;;;5012127;28;20076;-74
2021/08/21 00:27:25;;;;;;;10.35;6.10;;;17.70;95.70;;;;;;5011582;28;20030;-76
2021/08/21 00:29:52;;;;;;;9.77;6.18;;;17.70;95.70;;;;;;5012258;28;20022;-76
2021/08/21 00:32:18;;;;;;;10.15;6.22;;;17.70;95.70;;;;;;5011625;28;20168;-76
2021/08/21 00:34:44;;;;;;;13.55;6.32;;;17.70;95.70;;;;;;5012732;28;20053;-74
2021/08/21 00:37:09;;;;;;;12.35;6.45;;;17.60;95.70;;;;;;5015974;28;20101;-76
2021/08/21 00:39:36;;;;;;;13.27;6.63;;;17.70;95.70;;;;;;5015156;28;20021;-75
2021/08/21 00:42:02;;;;;;;14.05;7.07;;;17.70;95.70;;;;;;5015950;28;20026;-75
2021/08/21 00:44:29;;;;;;;12.68;6.40;;;17.60;95.70;;;;;;5014044;28;20014;-76
2021/08/21 00:47:09;;;;;;;12.90;6.88;;;17.60;95.70;;;;;;5015890;28;20113;-76
2021/08/21 00:49:36;;;;;;;14.63;6.97;;;17.60;95.80;;;;;;5015103;28;20025;-76
2021/08/21 00:52:03;;;;;;;13.23;7.43;;;17.60;95.70;;;;;;5015786;28;20025;-76
2021/08/21 00:54:29;;;;;;;12.38;7.13;;;17.60;95.70;;;;;;5015139;28;20141;-75
2021/08/21 00:56:57;;;;;;;12.45;6.95;;;17.60;95.70;;;;;;5015433;28;20041;-75
2021/08/21 00:59:23;;;;;;;11.98;6.93;;;17.60;95.70;;;;;;5015029;28;20084;-77
2021/08/21 01:01:49;;;;;;;13.27;7.70;;;17.50;95.70;;;;;;5015274;28;20034;-75
2021/08/21 01:04:16;;;;;;;11.50;6.65;;;17.60;95.70;;;;;;5014189;28;20022;-75
2021/08/21 01:06:41;;;;;;;12.52;6.85;;;17.50;95.70;;;;;;5013595;28;20030;-75
2021/08/21 01:09:07;;;;;;;13.25;6.63;;;17.50;95.70;;;;;;5015582;28;20033;-76
2021/08/21 01:11:33;;;;;;;13.07;6.65;;;17.50;95.70;;;;;;5013383;28;20030;-75
2021/08/21 01:13:59;;;;;;;11.32;6.38;;;17.50;95.70;;;;;;5014109;28;20466;-76
2021/08/21 01:16:26;;;;;;;11.82;6.65;;;17.50;95.70;;;;;;5014808;28;20033;-76
2021/08/21 01:18:51;;;;;;;10.57;5.97;;;17.50;95.70;;;;;;5015348;28;20062;-77
2021/08/21 01:21:17;;;;;;;13.93;6.93;;;17.50;96.00;;;;;;5015195;28;20037;-75
2021/08/21 01:23:45;;;;;;;11.45;6.68;;;17.50;95.70;;;;;;5014549;28;20048;-75
2021/08/21 01:26:12;;;;;;;11.50;6.40;;;17.50;95.70;;;;;;5015035;28;20088;-76
2021/08/21 01:28:38;;;;;;;12.68;6.82;;;17.40;95.70;;;;;;5014821;28;20022;-76
2021/08/21 01:31:06;;;;;;;12.95;6.72;;;17.40;95.70;;;;;;5014690;28;20062;-76
2021/08/21 01:33:33;;;;;;;11.30;6.32;;;17.40;95.70;;;;;;5014449;28;20575;-75
2021/08/21 01:35:58;;;;;;;13.38;7.15;;;17.40;95.80;;;;;;5014979;28;20056;-76
2021/08/21 01:38:24;;;;;;;12.10;6.93;;;17.40;95.80;;;;;;5014541;28;20370;-75
2021/08/21 01:40:51;;;;;;;13.18;6.70;;;17.40;95.80;;;;;;5014729;28;20026;-75
2021/08/21 01:43:18;;;;;;;11.98;6.60;;;17.40;95.80;;;;;;5014734;28;20053;-75
2021/08/21 01:45:44;;;;;;;12.57;6.95;;;17.30;95.80;;;;;;5013642;28;20497;-75
2021/08/21 01:48:11;;;;;;;12.65;6.82;;;17.30;95.80;;;;;;5014422;28;20053;-76
2021/08/21 01:50:38;;;;;;;12.10;6.57;;;17.30;95.80;;;;;;5013740;28;20390;-76
2021/08/21 01:53:04;;;;;;;12.23;6.68;;;17.30;95.70;;;;;;5013224;28;20386;-76
2021/08/21 01:55:29;;;;;;;13.43;6.20;;;17.30;95.70;;;;;;5012611;28;20022;-76
2021/08/21 01:57:55;;;;;;;11.38;5.95;;;17.30;95.70;;;;;;5014496;28;20026;-76
2021/08/21 02:00:27;;;;;;;11.80;7.03;;;17.20;95.70;;;;;;5014438;28;20144;-75
2021/08/21 02:02:54;;;;;;;12.07;7.32;;;17.20;95.60;;;;;;5014458;28;20049;-76
2021/08/21 02:05:20;;;;;;;12.70;6.90;;;17.20;95.70;;;;;;5014420;28;20033;-75
2021/08/21 02:07:46;;;;;;;9.45;5.88;;;17.20;95.80;;;;;;5013883;28;20029;-76
2021/08/21 02:10:12;;;;;;;11.85;6.40;;;17.20;95.80;;;;;;5014247;28;20030;-75
2021/08/21 02:12:38;;;;;;;11.70;6.47;;;17.20;95.70;;;;;;5013376;28;20104;-75
2021/08/21 02:15:15;;;;;;;11.73;7.03;;;17.10;95.70;;;;;;5014374;28;20064;-75
2021/08/21 02:17:41;;;;;;;11.27;6.18;;;17.10;95.70;;;;;;5013293;28;20030;-74
2021/08/21 02:20:12;;;;;;;10.63;6.00;;;17.10;95.70;;;;;;5014503;28;20072;-74
2021/08/21 02:22:42;;;;;;;11.53;6.40;;;17.10;95.70;;;;;;5013339;28;20440;-77
2021/08/21 02:25:10;;;;;;;12.82;6.95;;;17.10;95.80;;;;;;5012933;28;20268;-74
2021/08/21 02:27:55;;;;;;;12.02;6.60;;;17.10;95.80;;;;;;5013315;28;20014;-76
2021/08/21 02:30:21;;;;;;;11.00;6.10;;;17.00;95.80;;;;;;5013982;28;20087;-76
2021/08/21 02:32:47;;;;;;;11.75;6.35;;;17.00;95.80;;;;;;5013270;28;20056;-76
2021/08/21 02:35:13;;;;;;;12.80;6.68;;;17.00;95.90;;;;;;5012580;28;20030;-75
2021/08/21 02:37:38;;;;;;;13.68;6.88;;;17.00;95.90;;;;;;5013262;28;20030;-75
2021/08/21 02:40:05;;;;;;;11.68;6.45;;;17.00;95.80;;;;;;5013769;28;20025;-76
2021/08/21 02:42:31;;;;;;;11.40;6.57;;;16.90;95.80;;;;;;5012952;28;20104;-76
2021/08/21 02:44:57;;;;;;;11.23;6.43;;;17.00;95.90;;;;;;5013622;28;20091;-76
2021/08/21 02:47:22;;;;;;;10.98;6.35;;;16.90;95.80;;;;;;5012370;28;20034;-76
2021/08/21 02:49:48;;;;;;;14.18;6.43;;;16.90;95.80;;;;;;5012891;28;20030;-77
2021/08/21 02:52:13;;;;;;;10.60;6.05;;;16.90;95.80;;;;;;5013329;28;20029;-76
2021/08/21 02:54:39;;;;;;;12.73;6.90;;;16.90;95.80;;;;;;5012607;28;20033;-76
2021/08/21 02:57:05;;;;;;;11.98;5.97;;;16.90;95.80;;;;;;5012656;28;20026;-75
2021/08/21 02:59:30;;;;;;;12.02;6.45;;;16.90;95.90;;;;;;5012727;28;20381;-76
2021/08/21 03:01:56;;;;;;;10.68;5.85;;;16.90;95.80;;;;;;5012194;28;20026;-76
2021/08/21 03:04:22;;;;;;;9.30;5.72;;;16.90;95.80;;;;;;5013560;28;20374;-75
2021/08/21 03:06:47;;;;;;;11.20;6.78;;;16.90;95.80;;;;;;5012374;28;20467;-75
2021/08/21 03:09:13;;;;;;;12.45;6.65;;;16.90;95.80;;;;;;5013286;28;20092;-74
2021/08/21 03:11:39;;;;;;;10.30;6.00;;;16.90;95.80;;;;;;5012200;28;20467;-74
2021/08/21 03:14:05;;;;;;;11.70;6.53;;;16.90;95.80;;;;;;5011756;28;20025;-74
2021/08/21 03:16:30;;;;;;;11.52;6.07;;;16.90;95.80;;;;;;5012311;28;20384;-75
2021/08/21 03:18:56;;;;;;;13.57;7.18;;;16.90;95.80;;;;;;5013165;28;20108;-74
2021/08/21 03:21:21;;;;;;;11.57;6.85;;;16.90;95.80;;;;;;5013073;28;20025;-75
2021/08/21 03:23:47;;;;;;;13.70;6.93;;;16.90;95.70;;;;;;5010974;28;20057;-75
2021/08/21 03:26:13;;;;;;;11.55;6.53;;;17.00;95.70;;;;;;5011617;28;20141;-76
2021/08/21 03:28:38;;;;;;;12.32;6.85;;;17.00;95.60;;;;;;5012515;28;20021;-76
2021/08/21 03:31:04;;;;;;;15.10;7.32;;;17.10;95.50;;;;;;5012724;28;20481;-76
2021/08/21 03:33:30;;;;;;;12.35;6.90;;;17.10;95.40;;;;;;5011000;28;20089;-73
2021/08/21 03:35:55;;;;;;;11.60;6.80;;;17.10;95.30;;;;;;5011770;28;20028;-74
2021/08/21 03:38:21;;;;;;;14.05;7.15;;;17.10;95.40;;;;;;5012383;28;20026;-74
2021/08/21 03:40:46;;;;;;;11.50;6.47;;;17.10;95.40;;;;;;5011667;28;20084;-74
2021/08/21 03:43:12;;;;;;;12.38;6.53;;;17.20;95.40;;;;;;5012374;28;20348;-74
2021/08/21 03:45:40;;;;;;;12.18;6.80;;;17.20;95.40;;;;;;5012044;28;20482;-74
2021/08/21 03:48:11;;;;;;;14.68;7.65;;;17.20;95.40;;;;;;5012607;28;20025;-74
2021/08/21 03:50:37;;;;;;;13.20;7.45;;;17.20;95.40;;;;;;5011789;28;20474;-75
2021/08/21 03:53:03;;;;;;;16.08;6.80;;;17.20;95.30;;;;;;5012429;28;20041;-74
2021/08/21 03:55:29;;;;;;;12.15;6.88;;;17.20;95.40;;;;;;5012204;28;20026;-74
2021/08/21 03:57:54;;;;;;;13.65;7.70;;;17.20;95.40;;;;;;5012109;28;20428;-74
2021/08/21 04:00:20;;;;;;;14.27;7.65;;;17.30;95.70;;;;;;5011139;28;20037;-74
2021/08/21 04:02:45;;;;;;;15.07;7.72;;;17.30;95.40;;;;;;5011980;28;20029;-74
2021/08/21 04:05:11;;;;;;;13.02;6.85;;;17.30;95.40;;;;;;5012385;28;20077;-74
2021/08/21 04:07:37;;;;;;;13.75;7.22;;;17.30;95.40;;;;;;5011427;28;20022;-75
2021/08/21 04:10:04;;;;;;;12.13;7.05;;;17.30;95.40;;;;;;5012022;28;20116;-74
2021/08/21 04:12:29;;;;;;;15.48;7.30;;;17.30;95.30;;;;;;5012385;28;20032;-75
2021/08/21 04:14:55;;;;;;;14.63;8.25;;;17.30;95.30;;;;;;5011558;28;20030;-75
2021/08/21 04:17:21;;;;;;;15.35;7.70;;;17.40;95.30;;;;;;5012385;28;20029;-74
2021/08/21 04:19:47;;;;;;;15.93;8.02;;;17.40;95.30;;;;;;5011862;28;20060;-74
2021/08/21 04:22:13;;;;;;;16.27;8.68;;;17.40;95.30;;;;;;5010780;28;20065;-74
2021/08/21 04:24:38;;;;;;;15.13;8.00;;;17.30;95.20;;;;;;5010172;28;20014;-74
2021/08/21 04:27:04;;;;;;;15.60;7.57;;;17.30;95.30;;;;;;5011996;28;20429;-74
2021/08/21 04:29:30;;;;;;;14.05;8.25;;;17.40;95.30;;;;;;5012009;28;20117;-74
2021/08/21 04:31:55;;;;;;;18.20;8.35;;;17.40;95.30;;;;;;5011196;28;20030;-72
2021/08/21 04:34:21;;;;;;;15.48;7.30;;;17.40;95.30;;;;;;5011652;28;20053;-73
2021/08/21 04:36:46;;;;;;;14.55;7.88;;;17.40;95.30;;;;;;5011118;28;20030;-76
2021/08/21 04:39:12;;;;;;;12.45;7.55;;;17.40;95.30;;;;;;5012262;28;20170;-76
2021/08/21 04:41:38;;;;;;;16.33;7.68;;;17.40;95.30;;;;;;5011417;28;20092;-76
2021/08/21 04:44:04;;;;;;;13.27;7.65;;;17.40;95.40;;;;;;5011916;28;20029;-76
2021/08/21 04:46:29;;;;;;;15.13;8.30;;;17.40;95.30;;;;;;5012131;28;20026;-76
2021/08/21 04:48:55;;;;;;;15.98;8.13;;;17.40;95.30;;;;;;5011618;28;20026;-76
2021/08/21 04:51:21;;;;;;;18.10;8.80;;;17.40;95.30;;;;;;5011643;28;20351;-76
2021/08/21 04:53:46;;;;;;;16.75;7.82;;;17.30;95.30;;;;;;5009971;28;20030;-76
2021/08/21 04:56:12;;;;;;;14.82;7.80;;;17.30;95.40;;;;;;5011809;28;20022;-76
2021/08/21 04:58:37;;;;;;;12.85;7.55;;;17.30;95.50;;;;;;5011146;28;20049;-76
2021/08/21 05:01:03;;;;;;;14.45;7.93;;;17.30;95.50;;;;;;5011803;28;20486;-76
2021/08/21 05:03:29;;;;;;;14.18;7.43;;;17.30;95.50;;;;;;5011762;28;20088;-76
2021/08/21 05:05:54;;;;;;;13.63;7.30;;;17.30;95.50;;;;;;5010854;28;20026;-76
2021/08/21 05:08:20;;;;;;;16.55;7.97;;;17.30;95.50;;;;;;5011877;28;20081;-74
2021/08/21 05:10:45;;;;;;;15.60;7.97;;;17.30;95.50;;;;;;5011059;28;20562;-74
2021/08/21 05:13:11;;;;;;;15.18;8.38;;;17.30;95.50;;;;;;5011418;28;20033;-74
2021/08/21 05:15:40;;;;;;;16.63;8.00;;;17.30;95.50;;;;;;5010066;28;20386;-74
2021/08/21 05:18:06;;;;;;;14.48;7.93;;;17.30;95.60;;;;;;5011967;28;20450;-74
2021/08/21 05:20:43;;;;;;;17.08;8.15;;;17.20;95.60;;;;;;5012379;28;20022;-74
2021/08/21 05:23:14;;;;;;;15.18;7.80;;;17.30;95.60;;;;;;5013740;28;20034;-74
2021/08/21 05:25:41;;;;;;;16.25;8.15;;;17.20;95.60;;;;;;5014558;28;20096;-74
2021/08/21 05:28:09;;;;;;;14.32;7.55;;;17.30;95.70;;;;;;5014999;28;20026;-74
2021/08/21 05:30:34;;;;;;;16.45;8.70;;;17.30;95.70;;;;;;5014645;28;20386;-74
2021/08/21 05:33:00;;;;;;;17.85;8.95;;;17.30;95.60;;;;;;5012690;28;20049;-74
2021/08/21 05:35:26;;;;;;;15.73;9.00;;;17.30;95.60;;;;;;5014824;28;20029;-74
2021/08/21 05:37:52;;;;;;;15.35;8.55;;;17.30;95.60;;;;;;5014269;28;20049;-74
2021/08/21 05:40:18;;;;;;;17.60;8.45;;;17.30;95.70;;;;;;5014795;28;20466;-74
2021/08/21 05:42:43;;;;;;;18.45;8.80;;;17.30;95.70;;;;;;5014170;28;20022;-75
2021/08/21 05:45:10;;;;;;;18.20;8.90;;;17.30;95.70;;;;;;5014635;28;20156;-74
2021/08/21 05:47:35;;;;;;;18.70;8.50;;;17.40;95.80;;;;;;5014681;28;20026;-74
2021/08/21 05:50:01;;;;;;;20.48;9.02;;;17.40;95.80;;;;;;5013757;28;20032;-74
2021/08/21 05:52:28;;;;;;;16.17;7.75;;;17.40;95.80;;;;;;5014514;28;20057;-73
2021/08/21 05:54:53;;;;;;;17.58;8.65;;;17.40;95.80;;;;;;5012648;28;20077;-74
2021/08/21 05:57:19;;;;;;;17.92;8.65;;;17.40;95.80;;;;;;5014753;28;20088;-74
2021/08/21 05:59:45;;;;;;;17.25;8.95;;;17.50;95.80;;;;;;5013819;28;20462;-74
2021/08/21 06:02:10;;;;;;;19.52;9.25;;;17.50;95.80;;;;;;5014104;28;20064;-74
2021/08/21 06:04:36;;;;;;;18.55;9.60;;;17.50;95.80;;;;;;5014355;28;20462;-74
2021/08/21 06:07:02;;;;;;;20.10;9.88;;;17.60;95.70;;;;;;5013704;28;20053;-74
2021/08/21 06:09:28;;;;;;;19.20;9.80;;;17.60;95.60;;;;;;5013968;28;20014;-74
2021/08/21 06:11:53;;;;;;;18.23;9.32;;;17.70;95.50;;;;;;5013206;28;20065;-74
2021/08/21 06:14:19;;;;;;;18.35;8.98;;;17.70;95.50;;;;;;5014161;28;20481;-74
2021/08/21 06:16:45;;;;;;;16.77;8.45;;;17.80;95.40;;;;;;5012306;28;20029;-74
2021/08/21 06:19:11;;;;;;;19.55;9.23;;;17.80;95.40;;;;;;5014096;28;20467;-75
2021/08/21 06:21:36;;;;;;;15.95;9.07;;;17.80;95.30;;;;;;5012850;28;20025;-75
2021/08/21 06:24:02;;;;;;;20.90;9.43;;;17.90;95.30;;;;;;5013355;28;20033;-75
2021/08/21 06:26:28;;;;;;;17.83;8.77;;;17.90;95.30;;;;;;5013949;28;20030;-74
2021/08/21 06:28:54;;;;;;;17.17;8.85;;;18.00;95.20;;;;;;5011952;28;20463;-75
2021/08/21 06:31:20;;;;;;;17.73;8.98;;;18.00;95.20;;;;;;5013346;28;20038;-75
2021/08/21 06:33:46;;;;;;;18.35;9.80;;;18.10;95.20;;;;;;5011936;28;20049;-75
2021/08/21 06:36:12;;;;;;;16.55;8.63;;;18.10;95.20;;;;;;5013733;28;20022;-74
2021/08/21 06:38:37;;;;;;;16.20;8.30;;;18.20;95.20;;;;;;5012267;28;20026;-74
2021/08/21 06:41:03;;;;;;;15.95;9.07;;;18.20;95.10;;;;;;5013080;28;20121;-74
2021/08/21 06:43:29;;;;;;;16.55;8.80;;;18.30;95.10;;;;;;5013595;28;20423;-74
2021/08/21 06:45:54;;;;;;;16.10;8.75;;;18.30;95.10;;;;;;5012796;28;20014;-74
2021/08/21 06:48:20;;;;;;;16.60;8.10;;;18.30;95.10;;;;;;5013450;28;20108;-74
2021/08/21 06:50:46;;;;;;;16.58;8.80;;;18.30;95.20;;;;;;5012489;28;20030;-74
2021/08/21 06:53:12;;;;;;;16.00;8.07;;;18.30;95.20;;;;;;5013100;28;20037;-74
2021/08/21 06:55:38;;;;;;;16.88;7.70;;;18.30;95.20;;;;;;5013470;28;20017;-75
2021/08/21 06:58:04;;;;;;;15.95;8.75;;;18.30;95.30;;;;;;5012683;28;20029;-75
2021/08/21 07:00:29;;;;;;;16.45;9.07;;;18.40;95.30;;;;;;5013276;28;20040;-75
2021/08/21 07:02:55;;;;;;;15.77;8.20;;;18.40;95.30;;;;;;5012698;28;20022;-75
2021/08/21 07:05:21;;;;;;;21.17;8.98;;;18.40;95.30;;;;;;5013266;28;20034;-75
2021/08/21 07:07:47;;;;;;;16.73;8.90;;;18.50;95.30;;;;;;5012401;28;20026;-75
2021/08/21 07:10:12;;;;;;;18.08;8.73;;;18.40;95.30;;;;;;5012879;28;20068;-75
2021/08/21 07:12:38;;;;;;;17.73;9.13;;;18.40;95.30;;;;;;5012861;28;20022;-75
2021/08/21 07:15:04;;;;;;;16.77;9.45;;;18.40;95.40;;;;;;5012234;28;20383;-74
2021/08/21 07:17:30;;;;;;;16.45;9.27;;;18.40;95.40;;;;;;5012708;28;20025;-73
2021/08/21 07:19:55;;;;;;;14.68;8.10;;;18.40;95.40;;;;;;5010816;28;20478;-74
2021/08/21 07:22:21;;;;;;;17.30;9.10;;;18.50;95.50;;;;;;5012628;28;20068;-73
2021/08/21 07:24:47;;;;;;;18.15;10.23;;;18.50;95.50;;;;;;5012935;28;20026;-75
2021/08/21 07:27:12;;;;;;;17.08;9.38;;;18.50;95.50;;;;;;5012891;28;20360;-75
2021/08/21 07:29:38;;;;;;;17.25;9.05;;;18.60;95.50;;;;;;5011634;28;20096;-75
2021/08/21 07:32:04;;;;;;;17.75;7.93;;;18.60;95.50;;;;;;5012139;28;20041;-75
2021/08/21 07:34:30;;;;;;;15.50;7.97;;;18.60;95.50;;;;;;5012260;28;20144;-75
2021/08/21 07:36:56;;;;;;;15.82;7.85;;;18.60;95.50;;;;;;5012037;28;20083;-75
2021/08/21 07:39:22;;;;;;;17.20;8.63;;;18.60;95.50;;;;;;5012382;28;20105;-75
2021/08/21 07:41:48;;;;;;;17.45;8.63;;;18.60;95.80;;;;;;5012619;28;20386;-75
2021/08/21 07:44:14;;;;;;;18.30;9.55;;;18.70;95.40;;;;;;5011939;28;20128;-75
2021/08/21 07:46:39;;;;;;;18.95;9.52;;;18.70;95.40;;;;;;5012706;28;20561;-75
2021/08/21 07:49:05;;;;;;;20.15;9.02;;;18.70;95.40;;;;;;5011736;28;20022;-75
2021/08/21 07:51:31;;;;;;;18.83;9.40;;;18.80;95.40;;;;;;5011003;28;20034;-75
2021/08/21 07:53:56;;;;;;;18.17;9.90;;;18.80;95.40;;;;;;5011506;28;20466;-75
2021/08/21 07:56:22;;;;;;;18.90;8.75;;;18.80;95.40;;;;;;5012203;28;20366;-75
2021/08/21 07:58:48;;;;;;;18.88;8.55;;;18.80;95.40;;;;;;5012074;28;20018;-75
2021/08/21 08:01:13;;;;;;;16.83;8.93;;;18.90;95.40;;;;;;5011648;28;20561;-75
2021/08/21 08:03:39;;;;;;;14.98;7.72;;;19.00;95.30;;;;;;5012301;28;20018;-75
2021/08/21 08:06:04;;;;;;;16.33;7.68;;;19.10;95.20;;;;;;5011789;28;20053;-75
2021/08/21 08:08:30;;;;;;;17.20;8.25;;;19.30;95.00;;;;;;5012223;28;20026;-75
2021/08/21 08:10:56;;;;;;;15.20;7.43;;;19.40;94.90;;;;;;5011334;28;20040;-74
2021/08/21 08:13:22;;;;;;;15.95;8.40;;;19.50;94.70;;;;;;5012406;28;20096;-74
2021/08/21 08:15:49;;;;;;;14.85;7.88;;;19.60;94.60;;;;;;5010840;28;20014;-76
2021/08/21 08:18:14;;;;;;;15.68;8.32;;;19.70;94.40;;;;;;5011337;28;20029;-74
2021/08/21 08:20:40;;;;;;;15.75;7.80;;;19.80;94.30;;;;;;5011024;28;20022;-74
2021/08/21 08:23:06;;;;;;;18.40;8.02;;;19.90;94.20;;;;;;5011017;28;20437;-73
2021/08/21 08:25:31;;;;;;;16.55;8.30;;;19.90;94.10;;;;;;5012035;28;20030;-74
2021/08/21 08:27:57;;;;;;;18.00;8.52;;;20.00;94.10;;;;;;5011505;28;20026;-74
2021/08/21 08:30:23;;;;;;;17.27;8.35;;;20.10;94.00;;;;;;5012223;28;20057;-74
2021/08/21 08:32:48;;;;;;;18.83;8.55;;;20.20;93.90;;;;;;5011721;28;20046;-74
2021/08/21 08:35:14;;;;;;;17.13;7.70;;;20.30;93.80;;;;;;5011391;28;20022;-74
2021/08/21 08:37:41;;;;;;;14.43;7.53;;;20.30;93.70;;;;;;5012223;28;20030;-74
2021/08/21 08:40:09;;;;;;;12.60;6.63;;;20.40;93.60;;;;;;5011368;28;20018;-74
2021/08/21 08:42:40;;;;;;;18.10;8.52;;;20.40;93.50;;;;;;5011738;28;20546;-74
2021/08/21 08:45:07;;;;;;;12.65;6.63;;;20.40;93.50;;;;;;5011205;28;20029;-74
2021/08/21 08:47:35;;;;;;;18.23;8.90;;;20.40;93.50;;;;;;5011555;28;20062;-74
2021/08/21 08:50:04;;;;;;;16.10;8.75;;;20.50;93.50;;;;;;5009975;28;20112;-74
2021/08/21 08:52:30;;;;;;;15.68;8.30;;;20.40;93.50;;;;;;5010659;28;20030;-74
2021/08/21 08:54:57;;;;;;;17.90;8.75;;;20.40;93.50;;;;;;5009741;28;20124;-74
2021/08/21 08:57:44;;;;;;;16.38;8.07;;;20.50;93.50;;;;;;5014083;28;20470;-74
2021/08/21 09:00:10;;;;;;;9.80;5.68;;;20.50;93.50;;;;;;5014771;28;20030;-74
2021/08/21 09:02:39;;;;;;;15.65;7.85;;;20.50;93.40;;;;;;5015465;28;20026;-75
2021/08/21 09:05:07;;;;;;;14.70;8.00;;;20.60;93.40;;;;;;5014860;28;20084;-73
2021/08/21 09:07:43;;;;;;;17.33;8.00;;;20.60;93.30;;;;;;5013991;28;20493;-74
2021/08/21 09:10:21;;;;;;;16.55;8.45;;;20.70;93.30;;;;;;5014694;28;20026;-74
2021/08/21 09:12:49;;;;;;;13.95;7.72;;;20.80;93.20;;;;;;5015363;28;20026;-74
2021/08/21 09:15:23;;;;;;;11.77;6.47;;;20.80;93.10;;;;;;5014573;28;20231;-74
2021/08/21 09:18:06;;;;;;;20.30;9.50;;;20.90;93.10;;;;;;5015259;28;20049;-74
2021/08/21 09:20:54;;;;;;;16.25;8.05;;;20.90;93.00;;;;;;5015272;28;20065;-74
2021/08/21 09:23:26;;;;;;;15.23;7.75;;;20.90;93.00;;;;;;5014156;28;20026;-73
2021/08/21 09:26:07;;;;;;;11.95;5.28;;;20.90;93.00;;;;;;5013676;28;20425;-74
2021/08/21 09:28:33;;;;;;;17.13;8.40;;;21.00;93.00;;;;;;5015039;28;20026;-73
2021/08/21 09:31:08;;;;;;;13.80;7.70;;;21.00;92.90;;;;;;5013041;28;20288;-75
2021/08/21 09:33:36;;;;;;;17.83;7.85;;;21.00;92.90;;;;;;5014951;28;20061;-74
2021/08/21 09:36:04;;;;;;;14.57;7.10;;;21.00;92.90;;;;;;5014176;28;20092;-74
2021/08/21 09:38:32;;;;;;;12.45;7.00;;;21.00;92.90;;;;;;5014807;28;20493;-74
2021/08/21 09:41:00;;;;;;;14.57;7.80;;;21.00;93.00;;;;;;5014009;28;20030;-74
2021/08/21 09:43:31;;;;;;;14.75;7.35;;;21.00;93.00;;;;;;5014782;28;20026;-74
2021/08/21 09:46:14;;;;;;;13.30;6.85;;;21.00;93.00;;;;;;5013271;28;20304;-74
2021/08/21 09:49:16;;;;;;;13.85;7.03;;;21.00;93.00;;;;;;5014776;28;20093;-74
2021/08/21 09:51:45;;;;;;;16.17;7.57;;;21.10;93.00;;;;;;4992539;28;20034;-74
2021/08/21 09:54:18;;;;;;;12.30;6.88;;;21.10;92.90;;;;;;5009840;28;20030;-74
2021/08/21 09:56:56;;;;;;;10.77;5.47;;;21.20;92.80;;;;;;5014576;28;20026;-74
2021/08/21 09:59:39;;;;;;;10.40;5.85;;;21.20;92.80;;;;;;5013775;28;20473;-74
2021/08/21 10:02:10;;;;;;;12.52;6.55;;;21.20;92.70;;;;;;5013544;28;20056;-74
2021/08/21 10:04:38;;;;;;;12.05;6.18;;;21.30;92.60;;;;;;5014337;28;20064;-74
2021/08/21 10:07:05;;;;;;;8.82;4.50;;;21.40;92.50;;;;;;5012271;28;20088;-74
2021/08/21 10:09:32;;;;;;;15.43;7.20;;;21.40;92.50;;;;;;5012765;28;20026;-75
2021/08/21 10:11:59;;;;;;;12.18;5.65;;;21.40;92.40;;;;;;5014208;28;20116;-75
2021/08/21 10:14:25;;;;;;;9.00;4.97;;;21.50;92.40;;;;;;5013118;28;20060;-75
2021/08/21 10:16:51;;;;;;;8.25;4.40;;;21.60;92.30;;;;;;5013917;28;20029;-75
2021/08/21 10:19:22;;;;;;;8.20;4.25;;;21.60;92.20;;;;;;5013377;28;20463;-75
2021/08/21 10:22:08;;;;;;;7.25;4.45;;;21.60;92.10;;;;;;5014174;28;20516;-75
2021/08/21 10:24:42;;;;;;;7.95;4.00;;;21.60;92.10;;;;;;5013751;28;20022;-75
2021/08/21 10:27:20;;;;;;;11.18;4.20;;;21.60;92.10;;;;;;5013337;28;20462;-75
2021/08/21 10:30:06;;;;;;;7.03;3.45;;;21.60;92.10;;;;;;5013976;28;20485;-75
2021/08/21 10:32:34;;;;;;;6.80;3.40;;;21.60;92.00;;;;;;5012204;28;20038;-75
2021/08/21 10:35:00;;;;;;;6.88;3.22;;;21.60;92.00;;;;;;5012509;28;20025;-75
2021/08/21 10:37:39;;;;;;;7.03;3.13;;;21.60;92.00;;;;;;5013747;28;20161;-74
2021/08/21 10:40:31;;;;;;;5.82;3.20;;;21.60;91.90;;;;;;5012705;28;20065;-74
2021/08/21 10:43:00;;;;;;;6.70;3.28;;;21.60;91.70;;;;;;5010706;28;20038;-75
2021/08/21 10:45:44;;;;;;;6.07;3.00;;;21.70;91.80;;;;;;5013155;28;20048;-74
2021/08/21 10:48:34;;;;;;;10.82;4.28;;;21.70;91.70;;;;;;5012527;28;20445;-75
2021/08/21 10:51:03;;;;;;;5.70;2.97;;;21.70;91.60;;;;;;5001930;28;20047;-74
2021/08/21 10:53:30;;;;;;;7.68;3.85;;;21.90;91.60;;;;;;5013399;28;20116;-74
2021/08/21 10:55:58;;;;;;;8.30;3.20;;;22.00;91.40;;;;;;5013440;28;20022;-74
2021/08/21 10:58:29;;;;;;;11.05;4.00;;;22.10;91.30;;;;;;5011489;28;20114;-75
2021/08/21 11:01:01;;;;;;;5.97;3.25;;;22.20;91.10;;;;;;5014236;28;20033;-75
2021/08/21 11:03:29;;;;;;;6.78;3.30;;;22.20;91.10;;;;;;5014503;28;20014;-77
2021/08/21 11:06:03;;;;;;;9.80;4.53;;;22.30;91.10;;;;;;5014121;28;20027;-76
2021/08/21 11:08:54;;;;;;;10.45;3.97;;;22.30;91.00;;;;;;5012018;28;20064;-74
2021/08/21 11:14:09;;;;;;;8.35;4.07;;;22.40;90.80;;;;;;5013072;28;20052;-73
2021/08/21 11:16:57;;;;;;;6.50;3.70;;;22.40;90.80;;;;;;5013100;28;20056;-72
2021/08/21 11:19:25;;;;;;;8.25;3.55;;;22.50;90.70;;;;;;5010685;28;20080;-74
2021/08/21 11:22:13;;;;;;;4.93;2.83;;;22.50;90.70;;;;;;5012898;28;20030;-74
2021/08/21 11:24:50;;;;;;;8.40;3.70;;;22.60;90.60;;;;;;5012517;28;20022;-73
2021/08/21 11:27:22;;;;;;;6.03;3.08;;;22.60;90.40;;;;;;5012022;28;20069;-73
2021/08/21 11:30:12;;;;;;;7.90;3.80;;;22.70;90.40;;;;;;5012809;28;20026;-74
2021/08/21 11:32:44;;;;;;;8.15;2.67;;;22.80;90.20;;;;;;5011387;28;20030;-76
2021/08/21 11:35:19;;;;;;;4.85;2.67;;;23.00;90.20;;;;;;5012016;28;20540;-76
2021/08/21 11:37:47;;;;;;;4.85;2.22;;;23.20;89.30;;;;;;5012473;28;20037;-76
2021/08/21 11:40:15;;;;;;;6.03;3.00;;;23.40;88.90;;;;;;5012033;28;20022;-74
2021/08/21 11:42:54;;;;;;;5.55;2.65;;;23.50;88.40;;;;;;5012572;28;20029;-75
2021/08/21 11:45:21;;;;;;;5.93;2.50;;;23.50;88.00;;;;;;5012127;28;20022;-76
2021/08/21 11:47:50;;;;;;;5.90;2.78;;;23.50;88.10;;;;;;5012265;28;20454;-74
2021/08/21 11:50:33;;;;;;;6.32;2.75;;;23.50;88.10;;;;;;5011429;28;20017;-75
2021/08/21 11:53:02;;;;;;;4.55;2.90;;;23.50;87.90;;;;;;5011132;28;20599;-75
2021/08/21 11:55:30;;;;;;;7.30;2.72;;;23.50;88.00;;;;;;5011322;28;20335;-74
2021/08/21 11:57:56;;;;;;;6.80;3.13;;;23.50;87.80;;;;;;5010984;28;20029;-75
2021/08/21 12:00:28;;;;;;;5.25;3.10;;;23.50;87.90;;;;;;5011016;28;20049;-75
2021/08/21 12:02:58;;;;;;;6.78;2.97;;;23.60;87.60;;;;;;5010370;28;20030;-75
2021/08/21 12:05:28;;;;;;;5.15;2.40;;;23.70;87.30;;;;;;5011380;28;20494;-74
2021/08/21 12:07:54;;;;;;;6.97;3.38;;;23.80;86.90;;;;;;5012514;28;20026;-75
2021/08/21 12:10:20;;;;;;;6.53;3.58;;;23.90;86.50;;;;;;5010169;28;20048;-75
2021/08/21 12:12:53;;;;;;;5.13;2.58;;;23.90;86.20;;;;;;5012361;28;20077;-75
2021/08/21 12:15:27;;;;;;;4.78;2.92;;;24.00;86.10;;;;;;5019483;28;20028;-75
2021/08/21 12:17:53;;;;;;;4.78;2.55;;;24.00;86.00;;;;;;5031566;28;20018;-75
2021/08/21 12:20:19;;;;;;;5.57;2.53;;;24.00;85.90;;;;;;5030856;28;20112;-76
2021/08/21 12:22:45;;;;;;;7.57;3.03;;;24.00;85.90;;;;;;5032213;28;20104;-76
2021/08/21 12:25:11;;;;;;;4.97;2.80;;;24.00;85.90;;;;;;5031116;28;20022;-76
2021/08/21 12:27:36;;;;;;;5.30;2.70;;;24.00;85.60;;;;;;5031371;28;20021;-75
2021/08/21 12:30:11;;;;;;;6.03;3.08;;;24.00;85.60;;;;;;5031966;28;20550;-75
2021/08/21 12:32:38;;;;;;;3.58;2.08;;;24.00;85.50;;;;;;5033813;28;20179;-75
2021/08/21 12:35:08;;;;;;;6.05;2.67;;;23.90;85.60;;;;;;5035805;28;20491;-75
2021/08/21 12:37:34;;;;;;;4.22;2.42;;;23.90;85.70;;;;;;5035530;28;20075;-75
2021/08/21 12:40:16;;;;;;;4.90;2.40;;;23.80;85.90;;;;;;5035725;28;20442;-75
2021/08/21 12:42:44;;;;;;;7.22;2.78;;;23.70;85.80;;;;;;5034484;28;20026;-74
2021/08/21 12:45:25;;;;;;;4.53;2.20;;;23.60;86.00;;;;;;5033906;28;20028;-75